Lamoille, Nevada
Current Conditions -  °F | °C
As of 5:56 PM on Sunday 25 Jan 2015 (Local Time) from KEKO Reporting Station
Clear Clear  
Wind Chill: 38°   Ceiling: Unl
Heat Index: 41°   Visibility: 10mi
Dew Point: 32°   Wind: 5mph
Humidity: 70%   Direction: 360°N
Pressure: 30.37"   Gusts: NA
Location:  40.73°N, 115.48°W
Report Text: KEKO 260156Z AUTO 36004KT 10SM CLR 05/00 A3037 RMK AO2 SLP301 T00500000
Loading
Personal Weather Stations






























Interactive Weather Map New forecast layout! Learn more

10-Day Weather Forecast

Advertisements
Track Severe Weather on mobile